Repto Guayanes, Puerto Rico
Current Conditions -  °F | °C
As of 11:56 PM on Thursday 27 Nov 2014 (Local Time) from TJSJ Reporting Station
Clear Clear  
Wind Chill: 76°   Ceiling: Unl
Heat Index: 76°   Visibility: 10mi
Dew Point: 71°   Wind: 0mph
Humidity: 85%   Direction: NA
Pressure: 29.97"   Gusts: NA
Location:  18.0112°N, 66.3514°W
Report Text: TJSJ 280356Z 00000KT 10SM CLR 24/22 A2997 RMK AO2 SLP146 T02440217 402940233
Loading
Personal Weather Stations






























Interactive Weather Map New forecast layout! Learn more

10-Day Weather Forecast

Advertisements
Track Severe Weather on mobile